createdAt,value
2017-03-28T00:00:16.101Z,0
2017-03-28T00:01:17.347Z,0
2017-03-28T00:02:18.592Z,0
2017-03-28T00:03:19.875Z,0
2017-03-28T00:04:21.118Z,0
2017-03-28T00:05:22.357Z,0
2017-03-28T00:06:23.621Z,0
2017-03-28T00:07:24.858Z,0
2017-03-28T00:08:26.104Z,0
2017-03-28T00:09:27.345Z,0
2017-03-28T00:10:28.596Z,0
2017-03-28T00:11:29.834Z,0
2017-03-28T00:12:31.105Z,0
2017-03-28T00:13:32.339Z,0
2017-03-28T00:14:33.577Z,0
2017-03-28T00:15:34.816Z,0
2017-03-28T00:16:36.066Z,0
2017-03-28T00:17:37.311Z,0
2017-03-28T00:18:38.555Z,0
2017-03-28T00:19:39.824Z,0
2017-03-28T00:20:41.177Z,0
2017-03-28T00:21:42.522Z,0
2017-03-28T00:22:43.783Z,0
2017-03-28T00:23:45.068Z,0
2017-03-28T00:24:46.289Z,0
2017-03-28T00:25:47.606Z,0
2017-03-28T00:26:48.855Z,0
2017-03-28T00:27:50.088Z,0
2017-03-28T00:28:51.394Z,0
2017-03-28T00:29:52.631Z,0
2017-03-28T00:30:53.875Z,0
2017-03-28T00:31:55.234Z,0
2017-03-28T00:32:56.575Z,0
2017-03-28T00:33:57.866Z,0
2017-03-28T00:34:59.109Z,0
2017-03-28T00:36:00.352Z,0
2017-03-28T00:37:01.588Z,0
2017-03-28T00:38:02.851Z,0
2017-03-28T00:39:04.087Z,0
2017-03-28T00:40:05.334Z,0
2017-03-28T00:41:06.573Z,0
2017-03-28T00:42:07.813Z,0
2017-03-28T00:43:09.053Z,0
2017-03-28T00:44:10.311Z,0
2017-03-28T00:45:11.532Z,0
2017-03-28T00:46:12.761Z,0
2017-03-28T00:47:14.033Z,0
2017-03-28T00:48:15.274Z,0
2017-03-28T00:49:16.510Z,0
2017-03-28T00:50:17.742Z,0
2017-03-28T00:51:19.044Z,0
2017-03-28T00:52:20.303Z,0
2017-03-28T00:53:21.588Z,0
2017-03-28T00:54:22.799Z,0
2017-03-28T00:55:24.016Z,0
2017-03-28T00:56:25.264Z,0
2017-03-28T00:57:26.490Z,0
2017-03-28T00:58:27.738Z,0
2017-03-28T00:59:29.050Z,0
2017-03-28T01:00:30.289Z,0
2017-03-28T01:01:31.533Z,0
2017-03-28T01:02:32.769Z,0
2017-03-28T01:03:33.997Z,0
2017-03-28T01:04:35.266Z,0
2017-03-28T01:05:36.534Z,0
2017-03-28T01:06:37.799Z,0
2017-03-28T01:07:39.058Z,0
2017-03-28T01:08:40.275Z,0
2017-03-28T01:09:41.556Z,0
2017-03-28T01:10:42.756Z,0
2017-03-28T01:11:43.998Z,0
2017-03-28T01:12:45.237Z,0
2017-03-28T01:13:46.478Z,0
2017-03-28T01:14:47.766Z,0
2017-03-28T01:15:49.005Z,0
2017-03-28T01:16:50.242Z,0
2017-03-28T01:17:51.491Z,0
2017-03-28T01:18:52.731Z,0
2017-03-28T01:19:53.972Z,0
2017-03-28T01:20:55.206Z,0
2017-03-28T01:21:56.443Z,0
2017-03-28T01:22:57.674Z,0
2017-03-28T01:23:59.059Z,0
2017-03-28T01:25:00.364Z,0
2017-03-28T01:26:01.634Z,0
2017-03-28T01:27:02.864Z,0
2017-03-28T01:28:04.124Z,0
2017-03-28T01:29:05.434Z,0
2017-03-28T01:30:06.647Z,0
2017-03-28T01:31:07.886Z,0
2017-03-28T01:32:09.150Z,0
2017-03-28T01:33:10.384Z,0
2017-03-28T01:34:11.603Z,0
2017-03-28T01:35:12.840Z,0
2017-03-28T01:36:14.111Z,0
2017-03-28T01:37:15.321Z,0
2017-03-28T01:38:16.565Z,0
2017-03-28T01:39:17.995Z,0
2017-03-28T01:40:19.217Z,0
2017-03-28T01:41:20.454Z,0
2017-03-28T01:42:21.687Z,0
2017-03-28T01:43:23.062Z,0
2017-03-28T01:44:24.303Z,0
2017-03-28T01:45:25.553Z,0
2017-03-28T01:46:26.814Z,0
2017-03-28T01:47:28.060Z,0
2017-03-28T01:48:29.382Z,0
2017-03-28T01:49:30.622Z,0
2017-03-28T01:50:32.016Z,0
2017-03-28T01:51:33.228Z,0
2017-03-28T01:52:34.480Z,0
2017-03-28T01:53:35.710Z,0
2017-03-28T01:54:36.946Z,0
2017-03-28T01:55:38.185Z,0
2017-03-28T01:56:39.424Z,0
2017-03-28T01:57:40.680Z,0
2017-03-28T01:58:41.950Z,0
2017-03-28T01:59:43.179Z,0
2017-03-28T02:00:44.440Z,0
2017-03-28T02:01:45.686Z,0
2017-03-28T02:02:46.949Z,0
2017-03-28T02:03:48.163Z,0
2017-03-28T02:04:49.430Z,0
2017-03-28T02:05:50.672Z,0
2017-03-28T02:06:51.890Z,0
2017-03-28T02:07:53.205Z,0
2017-03-28T02:08:54.404Z,0
2017-03-28T02:09:55.644Z,0
2017-03-28T02:10:56.886Z,0
2017-03-28T02:11:58.131Z,0
2017-03-28T02:12:59.358Z,0
2017-03-28T02:14:00.611Z,0
2017-03-28T02:15:01.917Z,0
2017-03-28T02:16:03.188Z,0
2017-03-28T02:17:04.383Z,0
2017-03-28T02:18:05.696Z,0
2017-03-28T02:19:06.922Z,0
2017-03-28T02:20:08.160Z,0
2017-03-28T02:21:09.389Z,0
2017-03-28T02:22:10.826Z,0
2017-03-28T02:23:12.049Z,0
2017-03-28T02:24:13.276Z,0
2017-03-28T02:25:14.509Z,0
2017-03-28T02:26:15.747Z,0
2017-03-28T02:27:16.976Z,0
2017-03-28T02:28:18.278Z,0
2017-03-28T02:29:19.617Z,0
2017-03-28T02:30:20.852Z,0
2017-03-28T02:31:22.090Z,0
2017-03-28T02:32:23.345Z,0
2017-03-28T02:33:24.653Z,0
2017-03-28T02:34:26.041Z,0
2017-03-28T02:35:27.304Z,0
2017-03-28T02:36:28.530Z,0
2017-03-28T02:37:29.779Z,0
2017-03-28T02:38:31.016Z,0
2017-03-28T02:39:32.245Z,0
2017-03-28T02:40:33.556Z,0
2017-03-28T02:41:34.794Z,0
2017-03-28T02:42:36.050Z,0
2017-03-28T02:43:37.289Z,0
2017-03-28T02:44:38.524Z,0
2017-03-28T02:45:39.923Z,0
2017-03-28T02:46:41.145Z,0
2017-03-28T02:47:42.381Z,0
2017-03-28T02:48:43.610Z,0
2017-03-28T02:49:44.846Z,0
2017-03-28T02:50:46.098Z,0
2017-03-28T02:51:47.384Z,0
2017-03-28T02:52:48.623Z,0
2017-03-28T02:53:49.891Z,0
2017-03-28T02:54:51.152Z,0
2017-03-28T02:55:52.390Z,0
2017-03-28T02:56:53.647Z,0
2017-03-28T02:57:54.928Z,0
2017-03-28T02:58:56.162Z,0
2017-03-28T02:59:57.491Z,0
2017-03-28T03:00:58.739Z,0
2017-03-28T03:01:59.998Z,0
2017-03-28T03:03:01.237Z,0
2017-03-28T03:04:02.474Z,0
2017-03-28T03:05:03.720Z,0
2017-03-28T03:06:04.987Z,0
2017-03-28T03:07:06.201Z,0
2017-03-28T03:08:07.457Z,0
2017-03-28T03:09:08.679Z,0
2017-03-28T03:10:09.960Z,0
2017-03-28T03:11:11.241Z,0
2017-03-28T03:12:12.476Z,0
2017-03-28T03:13:13.724Z,0
2017-03-28T03:14:14.955Z,0
2017-03-28T03:15:16.205Z,0
2017-03-28T03:16:17.462Z,0
2017-03-28T03:17:18.715Z,0
2017-03-28T03:18:19.923Z,0
2017-03-28T03:19:21.170Z,0
2017-03-28T03:20:22.412Z,0
2017-03-28T03:21:23.750Z,0
2017-03-28T03:22:24.980Z,0
2017-03-28T03:23:26.233Z,0
2017-03-28T03:24:27.576Z,0
2017-03-28T03:25:28.816Z,0
2017-03-28T03:26:30.164Z,0
2017-03-28T03:27:31.460Z,0
2017-03-28T03:28:32.705Z,0
2017-03-28T03:29:33.920Z,0
2017-03-28T03:30:35.156Z,0
2017-03-28T03:31:36.438Z,0
2017-03-28T03:32:37.823Z,0
2017-03-28T03:33:39.061Z,0
2017-03-28T03:34:40.492Z,0
2017-03-28T03:35:41.743Z,0
2017-03-28T03:36:42.979Z,0
2017-03-28T03:37:44.277Z,0
2017-03-28T03:38:45.584Z,0
2017-03-28T03:39:46.816Z,0
2017-03-28T03:40:48.122Z,0
2017-03-28T03:41:49.361Z,0
2017-03-28T03:42:50.584Z,0
2017-03-28T03:43:52.026Z,0
2017-03-28T03:44:53.270Z,0
2017-03-28T03:45:54.530Z,0
2017-03-28T03:46:55.770Z,0
2017-03-28T03:47:57.031Z,0
2017-03-28T03:48:58.276Z,0
2017-03-28T03:49:59.536Z,0
2017-03-28T03:51:00.762Z,0
2017-03-28T03:52:02.010Z,0
2017-03-28T03:53:03.241Z,0
2017-03-28T03:54:04.503Z,0
2017-03-28T03:55:05.725Z,0
2017-03-28T03:56:07.014Z,0
2017-03-28T03:57:08.271Z,0
2017-03-28T03:58:09.650Z,0
2017-03-28T03:59:10.876Z,0
2017-03-28T04:00:12.116Z,0
2017-03-28T04:01:13.399Z,0
2017-03-28T04:02:14.646Z,0
2017-03-28T04:03:15.897Z,0
2017-03-28T04:04:17.135Z,0
2017-03-28T04:05:18.392Z,0
2017-03-28T04:06:19.660Z,0
2017-03-28T04:07:20.919Z,0
2017-03-28T04:08:22.177Z,0
2017-03-28T04:09:23.480Z,0
2017-03-28T04:10:24.699Z,0
2017-03-28T04:11:25.938Z,0
2017-03-28T04:12:27.177Z,0
2017-03-28T04:13:28.418Z,0
2017-03-28T04:14:29.677Z,0
2017-03-28T04:15:30.940Z,0
2017-03-28T04:16:32.277Z,0
2017-03-28T04:17:33.515Z,0
2017-03-28T04:18:34.772Z,0
2017-03-28T04:19:36.010Z,0
2017-03-28T04:20:37.266Z,0
2017-03-28T04:21:38.515Z,0
2017-03-28T04:22:39.758Z,0
2017-03-28T04:23:40.992Z,0
2017-03-28T04:24:42.231Z,0
2017-03-28T04:25:43.469Z,0
2017-03-28T04:26:44.707Z,0
2017-03-28T04:27:45.964Z,0
2017-03-28T04:28:47.349Z,0
2017-03-28T04:29:48.602Z,0
2017-03-28T04:30:49.873Z,0
2017-03-28T04:31:51.094Z,0
2017-03-28T04:32:52.332Z,0
2017-03-28T04:33:53.655Z,0
2017-03-28T04:34:54.894Z,0
2017-03-28T04:35:56.170Z,0
2017-03-28T04:36:57.411Z,0
2017-03-28T04:37:58.645Z,0
2017-03-28T04:38:59.867Z,0
2017-03-28T04:40:01.123Z,0
2017-03-28T04:41:02.392Z,0
2017-03-28T04:42:03.634Z,0
2017-03-28T04:43:04.880Z,0
2017-03-28T04:44:06.200Z,0
2017-03-28T04:45:07.434Z,0
2017-03-28T04:46:08.669Z,0
2017-03-28T04:47:09.917Z,0
2017-03-28T04:48:11.170Z,0
2017-03-28T04:49:12.410Z,0
2017-03-28T04:50:13.655Z,0
2017-03-28T04:51:14.929Z,0
2017-03-28T04:52:16.176Z,0
2017-03-28T04:53:17.417Z,0
2017-03-28T04:54:18.656Z,0
2017-03-28T04:55:20.015Z,0
2017-03-28T04:56:21.283Z,0
2017-03-28T04:57:22.501Z,0
2017-03-28T04:58:23.783Z,0
2017-03-28T04:59:25.036Z,0
2017-03-28T05:00:26.315Z,0
2017-03-28T05:01:27.576Z,0
2017-03-28T05:02:28.818Z,5
2017-03-28T05:03:30.061Z,5
2017-03-28T05:04:31.311Z,5
2017-03-28T05:05:32.578Z,5
2017-03-28T05:06:33.824Z,5
2017-03-28T05:07:35.064Z,5
2017-03-28T05:08:36.329Z,10
2017-03-28T05:09:37.574Z,10
2017-03-28T05:10:38.822Z,10
2017-03-28T05:11:40.068Z,10
2017-03-28T05:12:41.311Z,15
2017-03-28T05:13:42.660Z,15
2017-03-28T05:14:43.945Z,15
2017-03-28T05:15:45.185Z,15
2017-03-28T05:16:46.442Z,20
2017-03-28T05:17:47.666Z,20
2017-03-28T05:18:48.911Z,20
2017-03-28T05:19:50.176Z,25
2017-03-28T05:20:51.403Z,25
2017-03-28T05:21:52.650Z,30
2017-03-28T05:22:53.995Z,30
2017-03-28T05:23:55.250Z,30
2017-03-28T05:24:56.490Z,35
2017-03-28T05:25:57.789Z,35
2017-03-28T05:26:59.026Z,40
2017-03-28T05:28:00.333Z,40
2017-03-28T05:29:01.565Z,45
2017-03-28T05:30:02.833Z,45
2017-03-28T05:31:04.076Z,45
2017-03-28T05:32:05.331Z,50
2017-03-28T05:33:06.837Z,50
2017-03-28T05:34:08.167Z,55
2017-03-28T05:35:09.412Z,55
2017-03-28T05:36:10.716Z,60
2017-03-28T05:37:11.946Z,60
2017-03-28T05:38:13.222Z,65
2017-03-28T05:39:14.506Z,65
2017-03-28T05:40:15.753Z,70
2017-03-28T05:41:17.210Z,70
2017-03-28T05:42:18.494Z,75
2017-03-28T05:43:19.746Z,75
2017-03-28T05:44:21.000Z,80
2017-03-28T05:45:22.256Z,85
2017-03-28T05:46:23.485Z,85
2017-03-28T05:47:24.748Z,90
2017-03-28T05:48:25.992Z,95
2017-03-28T05:49:27.238Z,95
2017-03-28T05:50:28.475Z,100
2017-03-28T05:51:29.766Z,100
2017-03-28T05:52:31.024Z,105
2017-03-28T05:53:32.264Z,105
2017-03-28T05:54:33.508Z,110
2017-03-28T05:55:34.761Z,120
2017-03-28T05:56:35.987Z,130
2017-03-28T05:57:37.228Z,140
2017-03-28T05:58:38.462Z,190
2017-03-28T05:59:39.740Z,240
2017-03-28T06:00:40.973Z,265
2017-03-28T06:01:42.219Z,270
2017-03-28T06:02:43.541Z,275
2017-03-28T06:03:44.883Z,270
2017-03-28T06:04:46.133Z,275
2017-03-28T06:05:47.367Z,280
2017-03-28T06:06:48.608Z,280
2017-03-28T06:07:49.893Z,285
2017-03-28T06:08:51.170Z,295
2017-03-28T06:09:52.384Z,300
2017-03-28T06:10:53.628Z,305
2017-03-28T06:11:54.869Z,310
2017-03-28T06:12:56.117Z,315
2017-03-28T06:13:57.495Z,320
2017-03-28T06:14:58.750Z,325
2017-03-28T06:15:59.976Z,330
2017-03-28T06:17:01.218Z,335
2017-03-28T06:18:02.462Z,340
2017-03-28T06:19:03.757Z,345
2017-03-28T06:20:05.001Z,350
2017-03-28T06:21:06.400Z,355
2017-03-28T06:22:07.655Z,355
2017-03-28T06:23:08.909Z,360
2017-03-28T06:24:10.372Z,355
2017-03-28T06:25:11.646Z,350
2017-03-28T06:26:12.917Z,355
2017-03-28T06:27:14.178Z,365
2017-03-28T06:28:15.479Z,375
2017-03-28T06:29:16.725Z,385
2017-03-28T06:30:17.982Z,390
2017-03-28T06:31:19.237Z,410
2017-03-28T06:32:20.539Z,420
2017-03-28T06:33:21.789Z,430
2017-03-28T06:34:23.053Z,440
2017-03-28T06:35:24.293Z,450
2017-03-28T06:36:25.537Z,455
2017-03-28T06:37:26.787Z,465
2017-03-28T06:38:28.067Z,475
2017-03-28T06:39:29.360Z,480
2017-03-28T06:40:30.716Z,490
2017-03-28T06:41:31.997Z,500
2017-03-28T06:42:33.244Z,505
2017-03-28T06:43:34.496Z,515
2017-03-28T06:44:35.763Z,525
2017-03-28T06:45:36.983Z,535
2017-03-28T06:46:38.238Z,545
2017-03-28T06:47:39.491Z,555
2017-03-28T06:48:40.767Z,565
2017-03-28T06:49:42.170Z,580
2017-03-28T06:50:43.442Z,595
2017-03-28T06:51:44.687Z,610
2017-03-28T06:52:46.039Z,635
2017-03-28T06:53:47.293Z,650
2017-03-28T06:54:48.544Z,680
2017-03-28T06:55:49.797Z,700
2017-03-28T06:56:51.130Z,720
2017-03-28T06:57:52.321Z,735
2017-03-28T06:58:53.551Z,755
2017-03-28T06:59:54.799Z,770
2017-03-28T07:00:56.052Z,790
2017-03-28T07:01:57.426Z,805
2017-03-28T07:02:58.695Z,820
2017-03-28T07:03:59.947Z,830
2017-03-28T07:05:01.205Z,840
2017-03-28T07:06:02.455Z,850
2017-03-28T07:07:03.728Z,865
2017-03-28T07:08:04.963Z,885
2017-03-28T07:09:06.275Z,895
2017-03-28T07:10:07.568Z,910
2017-03-28T07:11:08.837Z,920
2017-03-28T07:12:10.096Z,940
2017-03-28T07:13:11.326Z,975
2017-03-28T07:14:12.587Z,1030
2017-03-28T07:15:13.865Z,1080
2017-03-28T07:16:15.102Z,1120
2017-03-28T07:17:16.420Z,1145
2017-03-28T07:18:17.666Z,1145
2017-03-28T07:19:18.939Z,1155
2017-03-28T07:20:20.212Z,1165
2017-03-28T07:21:21.474Z,1185
2017-03-28T07:22:22.730Z,1175
2017-03-28T07:23:24.010Z,1180
2017-03-28T07:24:25.267Z,1170
2017-03-28T07:25:26.517Z,1160
2017-03-28T07:26:27.768Z,1160
2017-03-28T07:27:29.042Z,1145
2017-03-28T07:28:30.356Z,1105
2017-03-28T07:29:31.684Z,1085
2017-03-28T07:30:32.936Z,1075
2017-03-28T07:31:34.193Z,1050
2017-03-28T07:32:35.459Z,1040
2017-03-28T07:33:36.713Z,1035
2017-03-28T07:34:37.961Z,1015
2017-03-28T07:35:39.214Z,995
2017-03-28T07:36:40.486Z,1005
2017-03-28T07:37:41.751Z,1010
2017-03-28T07:38:43.019Z,1020
2017-03-28T07:39:44.307Z,1010
2017-03-28T07:40:45.564Z,1010
2017-03-28T07:41:46.815Z,1025
2017-03-28T07:42:48.123Z,1030
2017-03-28T07:43:49.385Z,1035
2017-03-28T07:44:50.623Z,1035
2017-03-28T07:45:51.877Z,1030
2017-03-28T07:46:53.155Z,1045
2017-03-28T07:47:54.457Z,1050
2017-03-28T07:48:55.738Z,1050
2017-03-28T07:49:56.991Z,1045
2017-03-28T07:50:58.240Z,1045
2017-03-28T07:51:59.523Z,1060
2017-03-28T07:53:00.819Z,1060
2017-03-28T07:54:02.087Z,1085
2017-03-28T07:55:03.355Z,1105
2017-03-28T07:56:04.593Z,1100
2017-03-28T07:57:05.892Z,1085
2017-03-28T07:58:07.160Z,1100
2017-03-28T07:59:08.481Z,1115
2017-03-28T08:00:09.741Z,1125
2017-03-28T08:01:10.998Z,1140
2017-03-28T08:02:12.274Z,1155
2017-03-28T08:03:13.511Z,1165
2017-03-28T08:04:15.044Z,1175
2017-03-28T08:05:16.225Z,1190
2017-03-28T08:06:17.474Z,1160
2017-03-28T08:07:18.733Z,1155
2017-03-28T08:08:19.994Z,1130
2017-03-28T08:09:21.283Z,1095
2017-03-28T08:10:22.560Z,1070
2017-03-28T08:11:23.899Z,1055
2017-03-28T08:12:25.153Z,1030
2017-03-28T08:13:26.405Z,1020
2017-03-28T08:14:27.694Z,1010
2017-03-28T08:15:28.937Z,1005
2017-03-28T08:16:30.200Z,1000
2017-03-28T08:17:31.575Z,985
2017-03-28T08:18:32.825Z,985
2017-03-28T08:19:34.076Z,970
2017-03-28T08:20:35.336Z,975
2017-03-28T08:21:36.651Z,980
2017-03-28T08:22:37.898Z,975
2017-03-28T08:23:39.155Z,975
2017-03-28T08:24:40.410Z,975
2017-03-28T08:25:41.667Z,980
2017-03-28T08:26:42.906Z,985
2017-03-28T08:27:44.192Z,985
2017-03-28T08:28:45.516Z,985
2017-03-28T08:29:46.825Z,995
2017-03-28T08:30:48.075Z,995
2017-03-28T08:31:49.327Z,990
2017-03-28T08:32:50.610Z,995
2017-03-28T08:33:51.870Z,1000
2017-03-28T08:34:53.121Z,1005
2017-03-28T08:35:54.406Z,1010
2017-03-28T08:36:55.665Z,1020
2017-03-28T08:37:56.908Z,1025
2017-03-28T08:38:58.173Z,1030
2017-03-28T08:39:59.437Z,1030
2017-03-28T08:41:00.781Z,1045
2017-03-28T08:42:02.082Z,1035
2017-03-28T08:43:03.333Z,1040
2017-03-28T08:44:04.581Z,1045
2017-03-28T08:45:05.851Z,1045
2017-03-28T08:46:07.104Z,1050
2017-03-28T08:47:08.348Z,1065
2017-03-28T08:48:09.641Z,1060
2017-03-28T08:49:10.890Z,1070
2017-03-28T08:50:12.194Z,1080
2017-03-28T08:51:13.447Z,1090
2017-03-28T08:52:14.726Z,1100
2017-03-28T08:53:16.043Z,1100
2017-03-28T08:54:17.294Z,1110
2017-03-28T08:55:18.579Z,1100
2017-03-28T08:56:19.863Z,1110
2017-03-28T08:57:21.098Z,1120
2017-03-28T08:58:22.436Z,1150
2017-03-28T08:59:23.711Z,1165
2017-03-28T09:00:24.980Z,1165
2017-03-28T09:01:26.239Z,1175
2017-03-28T09:02:27.494Z,1195
2017-03-28T09:03:28.749Z,1230
2017-03-28T09:04:30.006Z,1270
2017-03-28T09:05:31.317Z,1310
2017-03-28T09:06:32.646Z,1330
2017-03-28T09:07:33.951Z,1395
2017-03-28T09:08:35.210Z,1505
2017-03-28T09:09:36.482Z,1520
2017-03-28T09:10:37.747Z,1630
2017-03-28T09:11:39.015Z,1755
2017-03-28T09:12:40.298Z,1770
2017-03-28T09:13:41.569Z,1720
2017-03-28T09:14:42.799Z,1745
2017-03-28T09:15:44.094Z,1735
2017-03-28T09:16:45.354Z,1815
2017-03-28T09:17:46.613Z,1880
2017-03-28T09:18:47.994Z,1950
2017-03-28T09:19:49.262Z,1905
2017-03-28T09:20:50.524Z,1910
2017-03-28T09:21:51.805Z,1880
2017-03-28T09:22:53.106Z,2035
2017-03-28T09:23:54.427Z,2075
2017-03-28T09:24:55.696Z,2020
2017-03-28T09:25:56.959Z,2000
2017-03-28T09:26:58.204Z,2005
2017-03-28T09:27:59.512Z,2010
2017-03-28T09:29:00.842Z,2130
2017-03-28T09:30:02.108Z,2155
2017-03-28T09:31:03.373Z,2170
2017-03-28T09:32:04.630Z,2140
2017-03-28T09:33:05.919Z,2175
2017-03-28T09:34:07.230Z,2220
2017-03-28T09:35:08.525Z,2255
2017-03-28T09:36:09.776Z,2220
2017-03-28T09:37:11.063Z,2125
2017-03-28T09:38:12.306Z,2015
2017-03-28T09:39:13.678Z,2005
2017-03-28T09:40:14.923Z,1945
2017-03-28T09:41:16.189Z,1895
2017-03-28T09:42:17.451Z,1860
2017-03-28T09:43:18.740Z,1810
2017-03-28T09:44:20.079Z,1980
2017-03-28T09:45:21.451Z,2175
2017-03-28T09:46:22.731Z,2245
2017-03-28T09:47:23.979Z,2305
2017-03-28T09:48:25.259Z,2440
2017-03-28T09:49:26.517Z,2480
2017-03-28T09:50:27.868Z,2410
2017-03-28T09:51:29.143Z,2185
2017-03-28T09:52:30.421Z,2215
2017-03-28T09:53:31.732Z,2375
2017-03-28T09:54:33.030Z,2520
2017-03-28T09:55:34.286Z,2510
2017-03-28T09:56:35.647Z,2405
2017-03-28T09:57:36.835Z,2430
2017-03-28T09:58:38.144Z,2335
2017-03-28T09:59:39.392Z,2370
2017-03-28T10:00:40.665Z,2425
2017-03-28T10:01:42.014Z,2455
2017-03-28T10:02:43.473Z,2465
2017-03-28T10:03:44.816Z,2370
2017-03-28T10:04:46.085Z,2435
2017-03-28T10:05:47.371Z,2405
2017-03-28T10:06:48.651Z,2425
2017-03-28T10:07:49.922Z,2610
2017-03-28T10:08:51.295Z,2615
2017-03-28T10:09:52.667Z,2480
2017-03-28T10:10:53.913Z,2475
2017-03-28T10:11:55.166Z,2560
2017-03-28T10:12:56.441Z,2650
2017-03-28T10:13:57.720Z,2510
2017-03-28T10:14:58.988Z,2585
2017-03-28T10:16:00.322Z,2680
2017-03-28T10:17:01.578Z,2565
2017-03-28T10:18:02.848Z,2430
2017-03-28T10:19:04.103Z,2575
2017-03-28T10:20:05.387Z,2655
2017-03-28T10:21:06.620Z,2645
2017-03-28T10:22:07.947Z,2720
2017-03-28T10:23:09.206Z,2745
2017-03-28T10:24:10.465Z,2800
2017-03-28T10:25:11.754Z,2790
2017-03-28T10:26:13.090Z,2740
2017-03-28T10:27:14.516Z,2385
2017-03-28T10:28:15.793Z,1975
2017-03-28T10:29:17.048Z,1940
2017-03-28T10:30:18.285Z,1955
2017-03-28T10:31:19.548Z,1915
2017-03-28T10:32:20.857Z,1985
2017-03-28T10:33:22.243Z,2070
2017-03-28T10:34:23.507Z,2000
2017-03-28T10:35:24.754Z,1880
2017-03-28T10:36:26.157Z,2065
2017-03-28T10:37:27.419Z,2170
2017-03-28T10:38:28.672Z,2135
2017-03-28T10:39:29.945Z,2140
2017-03-28T10:40:31.187Z,2125
2017-03-28T10:41:32.437Z,2125
2017-03-28T10:42:33.817Z,2140
2017-03-28T10:43:35.173Z,2245
2017-03-28T10:44:36.344Z,2050
2017-03-28T10:45:37.604Z,1035
2017-03-28T10:46:38.884Z,385
2017-03-28T10:47:40.124Z,360
2017-03-28T10:48:41.405Z,350
2017-03-28T10:49:42.756Z,345
2017-03-28T10:50:44.025Z,345
2017-03-28T10:51:45.262Z,340
2017-03-28T10:52:46.519Z,340
2017-03-28T10:53:47.857Z,335
2017-03-28T10:54:49.121Z,340
2017-03-28T10:55:50.388Z,335
2017-03-28T10:56:51.652Z,335
2017-03-28T10:57:52.875Z,335
2017-03-28T10:58:54.135Z,330
2017-03-28T10:59:55.406Z,330
2017-03-28T11:00:56.763Z,330
2017-03-28T11:01:58.157Z,330
2017-03-28T11:02:59.409Z,325
2017-03-28T11:04:00.673Z,325
2017-03-28T11:05:02.042Z,320
2017-03-28T11:06:03.288Z,325
2017-03-28T11:07:04.667Z,315
2017-03-28T11:08:05.996Z,315
2017-03-28T11:09:07.256Z,315
2017-03-28T11:10:08.504Z,310
2017-03-28T11:11:09.859Z,310
2017-03-28T11:12:11.142Z,310
2017-03-28T11:13:12.393Z,310
2017-03-28T11:14:13.708Z,315
2017-03-28T11:15:14.969Z,315
2017-03-28T11:16:16.245Z,320
2017-03-28T11:17:17.500Z,310
2017-03-28T11:18:18.779Z,305
2017-03-28T11:19:20.051Z,300
2017-03-28T11:20:21.304Z,300
2017-03-28T11:21:22.546Z,300
2017-03-28T11:22:23.785Z,300
2017-03-28T11:23:25.066Z,300
2017-03-28T11:24:26.284Z,295
2017-03-28T11:25:27.720Z,290
2017-03-28T11:26:28.973Z,290
2017-03-28T11:27:30.321Z,290
2017-03-28T11:28:31.558Z,285
2017-03-28T11:29:32.809Z,285
2017-03-28T11:30:34.055Z,285
2017-03-28T11:31:35.494Z,280
2017-03-28T11:32:36.741Z,280
2017-03-28T11:33:38.009Z,280
2017-03-28T11:34:39.229Z,280
2017-03-28T11:35:40.492Z,280
2017-03-28T11:36:41.753Z,280
2017-03-28T11:37:43.092Z,280
2017-03-28T11:38:44.387Z,275
2017-03-28T11:39:45.932Z,275
2017-03-28T11:40:47.176Z,275
2017-03-28T11:41:48.434Z,275
2017-03-28T11:42:49.819Z,275
2017-03-28T11:43:51.072Z,275
2017-03-28T11:44:52.314Z,270
2017-03-28T11:45:53.563Z,270
2017-03-28T11:46:54.831Z,270
2017-03-28T11:47:56.081Z,270
2017-03-28T11:48:57.330Z,270
2017-03-28T11:49:58.627Z,270
2017-03-28T11:50:59.876Z,270
2017-03-28T11:52:01.273Z,265
2017-03-28T11:53:02.513Z,265
2017-03-28T11:54:03.845Z,265
2017-03-28T11:55:05.082Z,265
2017-03-28T11:56:06.456Z,260
2017-03-28T11:57:07.724Z,260
2017-03-28T11:58:08.948Z,260
2017-03-28T11:59:10.190Z,255
2017-03-28T12:00:11.473Z,255
2017-03-28T12:01:12.781Z,255
2017-03-28T12:02:14.019Z,255
2017-03-28T12:03:15.266Z,255
2017-03-28T12:04:16.517Z,255
2017-03-28T12:05:17.776Z,265
2017-03-28T12:06:19.063Z,260
2017-03-28T12:07:20.396Z,255
2017-03-28T12:08:21.671Z,255
2017-03-28T12:09:22.914Z,255
2017-03-28T12:10:24.193Z,250
2017-03-28T12:11:25.514Z,250
2017-03-28T12:12:26.748Z,250
2017-03-28T12:13:27.990Z,250
2017-03-28T12:14:29.237Z,250
2017-03-28T12:15:30.484Z,250
2017-03-28T12:16:31.769Z,245
2017-03-28T12:17:33.024Z,245
2017-03-28T12:18:34.306Z,250
2017-03-28T12:19:35.564Z,250
2017-03-28T12:20:36.812Z,245
2017-03-28T12:21:38.133Z,245
2017-03-28T12:22:39.382Z,245
2017-03-28T12:23:40.635Z,240
2017-03-28T12:24:41.882Z,240
2017-03-28T12:25:43.138Z,240
2017-03-28T12:26:44.391Z,240
2017-03-28T12:27:45.646Z,240
2017-03-28T12:28:46.892Z,240
2017-03-28T12:29:48.186Z,240
2017-03-28T12:30:49.385Z,240
2017-03-28T12:31:50.635Z,240
2017-03-28T12:32:51.878Z,240
2017-03-28T12:33:53.133Z,240
2017-03-28T12:34:54.380Z,235
2017-03-28T12:35:55.755Z,235
2017-03-28T12:36:56.934Z,235
2017-03-28T12:37:58.173Z,240
2017-03-28T12:38:59.425Z,235
2017-03-28T12:40:00.683Z,235
2017-03-28T12:41:01.974Z,235
2017-03-28T12:42:03.206Z,235
2017-03-28T12:43:04.448Z,235
2017-03-28T12:44:05.700Z,235
2017-03-28T12:45:07.048Z,230
2017-03-28T12:46:08.301Z,230
2017-03-28T12:47:09.552Z,230
2017-03-28T12:48:10.787Z,230
2017-03-28T12:49:12.127Z,230
2017-03-28T12:50:13.462Z,230
2017-03-28T12:51:14.694Z,230
2017-03-28T12:52:15.961Z,230
2017-03-28T12:53:17.207Z,225
2017-03-28T12:54:18.459Z,225
2017-03-28T12:55:19.770Z,225
2017-03-28T12:56:21.028Z,230
2017-03-28T12:57:22.312Z,225
2017-03-28T12:58:23.561Z,225
2017-03-28T12:59:24.822Z,225
2017-03-28T13:00:26.095Z,225
2017-03-28T13:01:27.337Z,220
2017-03-28T13:02:28.614Z,220
2017-03-28T13:03:29.927Z,220
2017-03-28T13:04:31.134Z,220
2017-03-28T13:05:32.382Z,220
2017-03-28T13:06:33.625Z,220
2017-03-28T13:07:34.897Z,220
2017-03-28T13:08:36.268Z,225
2017-03-28T13:09:37.510Z,220
2017-03-28T13:10:38.776Z,220
2017-03-28T13:11:40.062Z,215
2017-03-28T13:12:41.310Z,215
2017-03-28T13:13:42.729Z,215
2017-03-28T13:14:44.064Z,215
2017-03-28T13:15:45.284Z,215
2017-03-28T13:16:46.532Z,215
2017-03-28T13:17:47.841Z,215
2017-03-28T13:18:49.090Z,210
2017-03-28T13:19:50.352Z,215
2017-03-28T13:20:51.610Z,210
2017-03-28T13:21:52.875Z,210
2017-03-28T13:22:54.126Z,210
2017-03-28T13:23:55.376Z,210
2017-03-28T13:24:56.620Z,210
2017-03-28T13:25:57.871Z,210
2017-03-28T13:26:59.126Z,210
2017-03-28T13:28:00.387Z,210
2017-03-28T13:29:01.645Z,205
2017-03-28T13:30:02.885Z,205
2017-03-28T13:31:04.196Z,205
2017-03-28T13:32:05.517Z,205
2017-03-28T13:33:06.712Z,205
2017-03-28T13:34:07.990Z,205
2017-03-28T13:35:09.217Z,205
2017-03-28T13:36:10.457Z,205
2017-03-28T13:37:11.704Z,205
2017-03-28T13:38:12.957Z,205
2017-03-28T13:39:14.430Z,205
2017-03-28T13:40:15.685Z,205
2017-03-28T13:41:16.963Z,205
2017-03-28T13:42:18.226Z,205
2017-03-28T13:43:19.505Z,200
2017-03-28T13:44:20.729Z,200
2017-03-28T13:45:21.971Z,200
2017-03-28T13:46:23.266Z,200
2017-03-28T13:47:24.624Z,200
2017-03-28T13:48:25.864Z,200
2017-03-28T13:49:27.121Z,200
2017-03-28T13:50:28.381Z,200
2017-03-28T13:51:29.672Z,200
2017-03-28T13:52:30.958Z,200
2017-03-28T13:53:32.201Z,200
2017-03-28T13:54:33.449Z,195
2017-03-28T13:55:34.700Z,195
2017-03-28T13:56:35.940Z,195
2017-03-28T13:57:37.189Z,195
2017-03-28T13:58:38.535Z,195
2017-03-28T13:59:39.785Z,195
2017-03-28T14:00:41.046Z,195
2017-03-28T14:01:42.314Z,195
2017-03-28T14:02:43.543Z,195
2017-03-28T14:03:44.834Z,195
2017-03-28T14:04:46.098Z,195
2017-03-28T14:05:47.369Z,195
2017-03-28T14:06:48.616Z,190
2017-03-28T14:07:50.038Z,195
2017-03-28T14:08:51.276Z,195
2017-03-28T14:09:52.775Z,195
2017-03-28T14:10:54.228Z,190
2017-03-28T14:11:55.697Z,195
2017-03-28T14:12:56.934Z,190
2017-03-28T14:13:58.169Z,190
2017-03-28T14:14:59.424Z,190
2017-03-28T14:16:00.719Z,190
2017-03-28T14:17:01.972Z,190
2017-03-28T14:18:03.247Z,190
2017-03-28T14:19:04.502Z,190